Time;durP1;ratioP1;P1;durP2;ratioP2;P2;SDS_P1;SDS_P2;PMS_P1;PMS_P2;Temp;Humidity;BMP_temperature;BMP_pressure;BME280_temperature;BME280_humidity;BME280_pressure;Samples;Min_cycle;Max_cycle;Signal;HPM_P1;HPM_P2
2021/01/25 00:00:51;;;;;;;25.50;17.55;;;;;;;28.16;52.49;101083.25;4810982;29;69981;-35
2021/01/25 00:03:22;;;;;;;42.28;19.15;;;;;;;28.14;53.33;101096.09;4810450;29;65665;-37
2021/01/25 00:05:53;;;;;;;36.15;19.13;;;;;;;28.23;53.38;101089.56;4824062;29;70969;-35
2021/01/25 00:08:23;;;;;;;42.97;18.95;;;;;;;28.23;53.52;101094.94;4828508;29;66346;-36
2021/01/25 00:10:54;;;;;;;36.10;18.08;;;;;;;28.25;53.68;101099.13;4821138;29;69313;-36
2021/01/25 00:13:25;;;;;;;39.33;21.48;;;;;;;28.35;53.70;101103.31;4825396;29;66294;-35
2021/01/25 00:15:55;;;;;;;51.72;21.08;;;;;;;28.31;54.09;101108.28;4823163;29;70049;-35
2021/01/25 00:18:26;;;;;;;48.75;25.08;;;;;;;28.39;55.19;101105.44;4819071;29;65597;-37
2021/01/25 00:20:57;;;;;;;82.57;26.67;;;;;;;28.61;55.75;101118.84;4826018;29;69987;-34
2021/01/25 00:23:27;;;;;;;94.40;31.33;;;;;;;28.64;55.96;101123.84;4818676;29;65858;-34
2021/01/25 00:25:58;;;;;;;73.13;30.52;;;;;;;28.67;56.85;101126.19;4824470;29;68911;-34
2021/01/25 00:28:29;;;;;;;61.00;30.73;;;;;;;28.59;57.08;101115.53;4825121;29;66145;-34
2021/01/25 00:30:59;;;;;;;57.78;31.83;;;;;;;28.67;57.37;101135.09;4824545;29;69665;-34
2021/01/25 00:33:30;;;;;;;49.53;29.77;;;;;;;28.67;57.63;101129.69;4825489;29;65197;-35
2021/01/25 00:36:01;;;;;;;73.78;37.72;;;;;;;28.61;58.72;101140.44;4816608;29;69318;-35
2021/01/25 00:38:32;;;;;;;80.15;39.72;;;;;;;28.51;58.96;101144.34;4810991;29;66028;-33
2021/01/25 00:41:02;;;;;;;69.57;37.33;;;;;;;28.38;59.50;101138.00;4801173;29;68173;-33
2021/01/25 00:43:33;;;;;;;69.07;35.92;;;;;;;28.57;58.95;101150.00;4822430;29;66775;-35
2021/01/25 00:46:04;;;;;;;67.45;35.65;;;;;;;28.49;59.04;101151.78;4826579;29;70388;-33
2021/01/25 00:48:34;;;;;;;80.63;37.78;;;;;;;28.38;59.26;101146.91;4823841;29;65803;-34
2021/01/25 00:51:05;;;;;;;66.95;35.25;;;;;;;28.45;60.02;101152.41;4817177;29;70997;-34
2021/01/25 00:53:36;;;;;;;74.57;34.17;;;;;;;28.38;59.83;101135.28;4803641;29;65899;-35
2021/01/25 00:56:10;;;;;;;64.50;33.05;;;;;;;28.57;59.20;101155.38;4809795;29;69172;-34
2021/01/25 00:58:41;;;;;;;52.70;32.75;;;;;;;28.62;59.23;101155.63;4822734;29;66204;-34
2021/01/25 01:01:11;;;;;;;58.65;31.10;;;;;;;28.66;59.41;101164.97;4813323;29;69130;-34
2021/01/25 01:03:42;;;;;;;52.78;30.17;;;;;;;28.67;59.07;101166.66;4824430;29;65533;-33
2021/01/25 01:06:13;;;;;;;52.50;29.58;;;;;;;28.66;59.37;101164.97;4810334;29;69144;-33
2021/01/25 01:08:44;;;;;;;46.67;28.67;;;;;;;28.70;59.09;101167.09;4812106;29;65640;-34
2021/01/25 01:11:15;;;;;;;47.00;26.90;;;;;;;28.73;59.38;101179.38;4821482;29;70096;-33
2021/01/25 01:13:47;;;;;;;41.10;25.80;;;;;;;28.73;59.21;101171.25;4826543;29;65903;-34
2021/01/25 01:16:18;;;;;;;48.83;28.08;;;;;;;28.81;59.02;101172.97;4825972;29;70608;-34
2021/01/25 01:18:48;;;;;;;39.30;26.40;;;;;;;28.68;59.68;101152.97;4822268;29;65674;-35
2021/01/25 01:21:19;;;;;;;39.78;26.80;;;;;;;28.86;58.82;101179.44;4818575;29;69722;-33
2021/01/25 01:23:51;;;;;;;47.45;26.65;;;;;;;28.85;58.97;101180.47;4821980;29;65687;-34
2021/01/25 01:26:21;;;;;;;44.67;26.55;;;;;;;28.88;59.48;101184.63;4813479;29;70496;-34
2021/01/25 01:28:52;;;;;;;40.08;26.40;;;;;;;28.86;59.27;101176.75;4826561;29;65770;-34
2021/01/25 01:31:24;;;;;;;47.15;26.98;;;;;;;28.84;59.39;101175.28;4811835;29;70575;-35
2021/01/25 01:33:55;;;;;;;48.03;27.83;;;;;;;28.94;59.03;101183.81;4819421;29;65443;-33
2021/01/25 01:36:26;;;;;;;46.65;27.58;;;;;;;28.89;59.47;101176.34;4821361;29;69370;-34
2021/01/25 01:38:56;;;;;;;41.95;26.30;;;;;;;28.93;59.31;101183.00;4828575;29;65897;-36
2021/01/25 01:41:27;;;;;;;46.75;26.90;;;;;;;28.98;59.49;101184.28;4828703;29;69403;-35
2021/01/25 01:43:58;;;;;;;41.40;26.15;;;;;;;29.03;59.31;101187.19;4828646;29;65269;-34
2021/01/25 01:46:29;;;;;;;41.30;26.55;;;;;;;29.01;59.16;101184.72;4823228;29;70133;-34
2021/01/25 01:49:00;;;;;;;48.40;26.98;;;;;;;29.04;59.84;101188.91;4823497;29;65483;-33
2021/01/25 01:51:31;;;;;;;44.00;26.20;;;;;;;29.10;59.64;101182.69;4824521;29;69284;-34
2021/01/25 01:54:03;;;;;;;44.10;26.77;;;;;;;29.15;59.01;101189.16;4817539;29;66070;-33
2021/01/25 01:56:35;;;;;;;50.28;28.38;;;;;;;29.14;59.45;101183.94;4829985;29;70290;-34
2021/01/25 01:59:06;;;;;;;52.05;30.20;;;;;;;29.08;60.00;101179.34;4830550;29;65148;-33
2021/01/25 02:01:36;;;;;;;40.83;29.70;;;;;;;29.19;59.17;101181.47;4822579;29;69268;-35
2021/01/25 02:04:11;;;;;;;46.75;29.10;;;;;;;29.18;59.42;101185.22;4826805;29;66624;-35
2021/01/25 02:06:45;;;;;;;41.45;27.02;;;;;;;29.25;59.49;101185.25;4828969;29;70320;-35
2021/01/25 02:09:17;;;;;;;39.28;25.92;;;;;;;29.22;59.37;101180.25;4829964;29;65914;-35
2021/01/25 02:11:48;;;;;;;40.28;25.63;;;;;;;29.19;59.57;101167.97;4827613;29;69209;-35
2021/01/25 02:14:19;;;;;;;43.70;24.67;;;;;;;29.27;59.45;101184.00;4827400;29;65921;-34
2021/01/25 02:16:49;;;;;;;42.35;25.40;;;;;;;29.28;59.76;101180.28;4829356;29;69815;-34
2021/01/25 02:19:42;;;;;;;33.78;23.17;;;;;;;29.35;59.53;101183.00;4830073;29;65095;-35
2021/01/25 02:22:37;;;;;;;40.00;25.08;;;;;;;29.31;59.56;101179.88;4829796;29;69852;-35
2021/01/25 02:25:18;;;;;;;39.67;25.48;;;;;;;29.41;59.43;101179.47;4826223;29;66458;-34
2021/01/25 02:27:50;;;;;;;39.50;26.00;;;;;;;29.39;59.10;101176.13;4827596;29;70065;-35
2021/01/25 02:30:22;;;;;;;38.92;27.85;;;;;;;29.33;59.60;101168.84;4827841;29;66130;-35
2021/01/25 02:32:53;;;;;;;;;;;;;;;29.47;59.19;101173.25;4826332;29;69877;-36
2021/01/25 02:35:25;;;;;;;41.40;27.58;;;;;;;29.51;58.58;101157.47;4816964;29;65980;-34
2021/01/25 02:37:56;;;;;;;41.97;27.55;;;;;;;29.55;59.14;101170.38;4828907;29;70138;-33
2021/01/25 02:40:29;;;;;;;46.95;28.83;;;;;;;29.43;58.95;101150.38;4827331;29;65231;-34
2021/01/25 02:43:01;;;;;;;43.38;27.02;;;;;;;29.55;59.20;101166.84;4827822;29;70744;-34
2021/01/25 02:45:32;;;;;;;46.13;25.98;;;;;;;29.51;59.19;101171.00;4811484;29;65311;-35
2021/01/25 02:48:04;;;;;;;37.10;24.98;;;;;;;29.54;59.43;101155.19;4829552;29;69300;-34
2021/01/25 02:50:35;;;;;;;57.75;36.28;;;;;;;29.55;59.13;101164.13;4828050;29;65233;-34
2021/01/25 02:53:05;;;;;;;68.05;42.13;;;;;;;29.54;58.98;101163.31;4812261;29;70558;-34
2021/01/25 02:55:36;;;;;;;80.32;51.40;;;;;;;29.53;58.82;101161.66;4825749;29;65158;-34
2021/01/25 02:58:08;;;;;;;82.45;46.83;;;;;;;29.57;58.89;101145.84;4826786;29;70109;-35
2021/01/25 03:00:39;;;;;;;79.68;47.20;;;;;;;29.61;58.70;101157.91;4824064;29;65989;-36
2021/01/25 03:03:10;;;;;;;95.82;55.25;;;;;;;29.59;58.81;101147.31;4807646;29;69383;-35
2021/01/25 03:05:41;;;;;;;85.38;52.47;;;;;;;29.62;58.84;101144.19;4821501;29;65897;-35
2021/01/25 03:08:13;;;;;;;86.00;49.25;;;;;;;29.68;58.93;101150.69;4826654;29;69332;-35
2021/01/25 03:10:47;;;;;;;99.55;52.80;;;;;;;29.69;58.90;101144.22;4828999;29;65752;-34
2021/01/25 03:13:24;;;;;;;74.72;46.28;;;;;;;29.71;58.99;101147.56;4827541;29;69202;-34
2021/01/25 03:15:57;;;;;;;84.05;48.78;;;;;;;29.73;58.67;101145.50;4825982;29;65533;-34
2021/01/25 03:18:28;;;;;;;88.88;50.58;;;;;;;29.78;58.68;101142.16;4823737;29;70886;-35
2021/01/25 03:20:59;;;;;;;91.85;50.08;;;;;;;29.76;58.89;101139.66;4826662;29;66040;-35
2021/01/25 03:23:29;;;;;;;87.35;50.25;;;;;;;29.80;58.64;101145.50;4828440;29;69776;-35
2021/01/25 03:26:03;;;;;;;77.35;42.05;;;;;;;29.86;58.14;101143.81;4827160;29;65768;-34
2021/01/25 03:28:35;;;;;;;63.40;35.75;;;;;;;29.88;58.34;101141.75;4827649;29;69821;-35
2021/01/25 03:31:06;;;;;;;59.55;32.47;;;;;;;29.91;58.55;101131.34;4828691;29;66717;-35
2021/01/25 03:33:37;;;;;;;68.18;38.08;;;;;;;29.94;58.81;101136.34;4827449;29;70421;-35
2021/01/25 03:36:07;;;;;;;79.22;44.42;;;;;;;29.92;58.11;101126.75;4828865;29;65394;-36
2021/01/25 03:38:38;;;;;;;91.72;48.75;;;;;;;29.92;58.17;101124.06;4828769;29;68999;-34
2021/01/25 03:41:09;;;;;;;73.88;44.92;;;;;;;29.98;58.43;101117.84;4826337;29;66713;-35
2021/01/25 03:43:40;;;;;;;88.32;45.40;;;;;;;29.97;57.98;101118.88;4826666;29;70203;-33
2021/01/25 03:46:10;;;;;;;102.53;44.58;;;;;;;29.96;57.84;101122.63;4821807;29;65980;-35
2021/01/25 03:48:41;;;;;;;82.03;40.42;;;;;;;29.97;57.64;101124.28;4817694;29;69621;-35
2021/01/25 03:51:12;;;;;;;77.30;42.10;;;;;;;30.00;57.19;101113.03;4827809;29;66290;-33
2021/01/25 03:53:43;;;;;;;68.78;41.05;;;;;;;30.06;57.33;101115.75;4824477;29;70487;-35
2021/01/25 03:56:14;;;;;;;75.03;41.30;;;;;;;30.11;57.27;101111.56;4828185;29;65696;-35
2021/01/25 03:58:46;;;;;;;79.60;44.30;;;;;;;30.14;56.74;101105.75;4828504;29;70533;-34
2021/01/25 04:01:16;;;;;;;77.88;40.35;;;;;;;30.11;57.30;101098.03;4824814;29;66274;-37
2021/01/25 04:03:47;;;;;;;59.35;38.03;;;;;;;30.21;56.56;101091.16;4827907;29;69697;-34
2021/01/25 04:06:18;;;;;;;53.15;35.13;;;;;;;30.27;56.43;101093.06;4819079;29;65224;-34
2021/01/25 04:08:49;;;;;;;65.30;39.20;;;;;;;30.31;56.42;101087.22;4824320;29;69374;-34
2021/01/25 04:11:20;;;;;;;69.80;37.67;;;;;;;30.36;56.53;101084.72;4825346;29;65901;-34
2021/01/25 04:13:51;;;;;;;74.00;40.08;;;;;;;30.35;56.45;101088.47;4827802;29;69282;-33
2021/01/25 04:16:22;;;;;;;57.30;35.88;;;;;;;30.38;55.97;101079.94;4827193;29;66901;-33
2021/01/25 04:18:54;;;;;;;65.00;34.72;;;;;;;30.46;56.10;101085.13;4827798;29;69248;-34
2021/01/25 04:21:25;;;;;;;53.42;33.17;;;;;;;30.50;56.11;101081.75;4826060;29;66693;-36
2021/01/25 04:23:55;;;;;;;53.00;32.92;;;;;;;30.54;55.87;101076.75;4826600;29;68974;-34
2021/01/25 04:26:26;;;;;;;58.30;31.95;;;;;;;30.56;56.06;101069.22;4826759;29;65122;-34
2021/01/25 04:28:57;;;;;;;58.38;33.72;;;;;;;30.60;56.51;101073.19;4827124;29;70065;-33
2021/01/25 04:31:28;;;;;;;80.35;41.70;;;;;;;30.56;56.31;101065.69;4819564;29;65981;-34
2021/01/25 04:33:58;;;;;;;60.33;37.47;;;;;;;30.61;55.97;101072.13;4826318;29;69540;-35
2021/01/25 04:36:29;;;;;;;60.58;39.53;;;;;;;30.63;55.78;101061.94;4826292;29;66232;-34
2021/01/25 04:39:02;;;;;;;62.33;39.90;;;;;;;30.62;56.40;101057.56;4817499;29;69308;-34
2021/01/25 04:41:33;;;;;;;85.03;48.05;;;;;;;30.62;56.33;101057.56;4818166;29;65214;-34
2021/01/25 04:44:04;;;;;;;83.40;48.53;;;;;;;30.57;55.98;101060.09;4824578;29;69884;-35
2021/01/25 04:46:35;;;;;;;82.55;48.75;;;;;;;30.59;56.32;101057.16;4827061;29;66444;-33
2021/01/25 04:49:07;;;;;;;84.05;51.00;;;;;;;30.62;55.54;101046.75;4827084;29;69987;-34
2021/01/25 04:51:39;;;;;;;75.35;47.17;;;;;;;30.67;55.52;101038.81;4824654;29;66497;-34
2021/01/25 04:54:10;;;;;;;55.70;37.93;;;;;;;30.76;55.24;101030.41;4826956;29;69963;-35
2021/01/25 04:56:46;;;;;;;54.22;33.47;;;;;;;30.79;55.19;101030.00;4825828;29;64969;-35
2021/01/25 04:59:17;;;;;;;40.05;29.25;;;;;;;30.81;55.24;101026.03;4826541;29;69854;-34
2021/01/25 05:01:48;;;;;;;39.63;26.08;;;;;;;30.87;54.83;101027.03;4825086;29;66086;-34
2021/01/25 05:04:19;;;;;;;33.47;23.77;;;;;;;30.87;55.23;101013.50;4826128;29;70035;-35
2021/01/25 05:06:50;;;;;;;34.30;22.15;;;;;;;30.87;54.73;101005.38;4825400;29;64477;-35
2021/01/25 05:09:21;;;;;;;33.97;21.80;;;;;;;30.88;55.11;101004.34;4821745;29;70826;-35
2021/01/25 05:12:03;;;;;;;29.45;19.70;;;;;;;30.90;54.38;101000.38;4820602;29;66361;-35
2021/01/25 05:14:41;;;;;;;21.85;18.33;;;;;;;30.91;54.57;100993.91;4817948;29;69177;-34
2021/01/25 05:17:14;;;;;;;20.83;16.90;;;;;;;30.82;54.98;100968.13;4826309;29;65910;-35
2021/01/25 05:19:47;;;;;;;22.98;15.98;;;;;;;31.01;54.61;100990.72;4827916;29;69290;-34
2021/01/25 05:22:21;;;;;;;18.90;14.40;;;;;;;30.94;55.13;100981.81;4825880;29;66236;-34
2021/01/25 05:24:54;;;;;;;14.13;12.73;;;;;;;31.07;54.61;100978.19;4818138;29;43010;-34
2021/01/25 05:27:30;;;;;;;12.13;11.18;;;;;;;31.09;54.65;100968.78;4827640;29;65987;-34
2021/01/25 05:30:08;;;;;;;10.77;10.02;;;;;;;31.01;54.10;100952.81;4825135;29;69054;-34
2021/01/25 05:32:54;;;;;;;11.00;9.32;;;;;;;31.12;54.55;100964.78;4824602;29;66212;-35
2021/01/25 05:35:33;;;;;;;8.40;7.82;;;;;;;31.13;54.01;100955.63;4824377;29;71022;-35
2021/01/25 05:38:07;;;;;;;8.88;7.65;;;;;;;31.08;54.32;100937.31;4826951;29;65122;-35
2021/01/25 05:40:39;;;;;;;8.10;7.35;;;;;;;31.10;54.07;100940.63;4825269;29;70378;-34
2021/01/25 05:43:17;;;;;;;7.07;6.68;;;;;;;31.15;54.24;100929.16;4825105;29;66047;-36
2021/01/25 05:45:48;;;;;;;7.00;6.57;;;;;;;31.12;53.92;100922.28;4826204;29;68955;-34
2021/01/25 05:48:19;;;;;;;7.25;6.68;;;;;;;31.16;54.49;100923.50;4825096;29;65367;-35
2021/01/25 05:50:49;;;;;;;7.55;7.05;;;;;;;31.16;54.46;100923.50;4823954;29;69940;-35
2021/01/25 05:53:21;;;;;;;7.93;7.22;;;;;;;31.19;54.18;100910.56;4827021;29;65943;-34
2021/01/25 05:55:52;;;;;;;8.77;8.07;;;;;;;31.25;54.21;100909.66;4826005;29;69701;-34
2021/01/25 05:58:22;;;;;;;8.05;7.43;;;;;;;31.28;54.36;100903.78;4823808;29;65281;-35
2021/01/25 06:00:53;;;;;;;8.00;7.50;;;;;;;31.27;53.80;100899.44;4823576;29;69497;-34
2021/01/25 06:03:27;;;;;;;7.10;6.60;;;;;;;31.31;54.01;100887.09;4826202;29;66236;-34
2021/01/25 06:05:58;;;;;;;6.93;6.38;;;;;;;31.32;53.62;100881.47;4826571;29;69856;-35
2021/01/25 06:08:48;;;;;;;6.97;5.75;;;;;;;31.32;53.53;100873.31;4824519;29;65909;-34
2021/01/25 06:11:21;;;;;;;5.07;4.78;;;;;;;31.31;53.66;100860.81;4821042;29;69453;-35
2021/01/25 06:14:19;;;;;;;5.15;4.80;;;;;;;31.33;53.89;100866.00;4823524;29;65436;-34
2021/01/25 06:16:51;;;;;;;4.43;4.13;;;;;;;31.38;53.83;100844.53;4823175;29;70378;-35
2021/01/25 06:19:25;;;;;;;4.50;4.20;;;;;;;31.34;53.45;100841.41;4813584;29;66226;-34
2021/01/25 06:21:58;;;;;;;4.40;4.10;;;;;;;31.37;53.44;100848.28;4824938;29;70741;-34
2021/01/25 06:24:29;;;;;;;;;;;;;;;31.36;53.56;100841.19;4824572;29;65893;-34
2021/01/25 06:27:02;;;;;;;4.78;4.47;;;;;;;31.30;53.46;100804.13;4828948;29;69887;-36
2021/01/25 06:29:36;;;;;;;5.28;4.85;;;;;;;31.45;53.23;100823.56;4827100;29;66748;-34
2021/01/25 06:32:10;;;;;;;4.32;4.10;;;;;;;31.49;53.21;100830.22;4827814;29;70020;-34
2021/01/25 06:34:41;;;;;;;6.18;5.78;;;;;;;31.55;52.67;100826.59;4828830;29;65415;-35
2021/01/25 06:37:14;;;;;;;10.35;6.00;;;;;;;31.12;51.76;100792.22;4828796;29;69958;-34
2021/01/25 06:39:48;;;;;;;9.63;6.20;;;;;;;31.15;49.91;100812.63;4813026;29;66504;-34
2021/01/25 06:42:19;;;;;;;5.95;5.35;;;;;;;31.03;49.05;100798.16;4829752;29;69892;-34
2021/01/25 06:44:50;;;;;;;6.40;5.13;;;;;;;30.91;48.81;100807.00;4825405;29;65482;-34
2021/01/25 06:47:21;;;;;;;8.82;4.88;;;;;;;30.78;47.71;100790.00;4808355;29;69256;-34
2021/01/25 06:49:52;;;;;;;6.65;5.53;;;;;;;30.66;47.11;100793.44;4828482;29;66083;-33
2021/01/25 06:52:30;;;;;;;6.75;5.35;;;;;;;30.61;45.74;100795.97;4827690;29;69906;-33
2021/01/25 06:55:05;;;;;;;7.75;4.95;;;;;;;30.56;45.05;100795.81;4827790;29;67084;-34
2021/01/25 06:57:37;;;;;;;11.45;4.88;;;;;;;30.44;45.55;100789.47;4828167;29;69718;-35
2021/01/25 07:00:14;;;;;;;4.65;4.35;;;;;;;30.34;42.86;100784.56;4828393;29;65642;-34
2021/01/25 07:02:58;;;;;;;5.35;4.85;;;;;;;30.28;42.41;100783.53;4827251;29;70618;-35
2021/01/25 07:05:39;;;;;;;6.63;5.97;;;;;;;30.20;42.04;100778.38;4827977;29;66106;-34
2021/01/25 07:08:26;;;;;;;8.10;6.10;;;;;;;30.14;43.25;100767.56;4824772;29;70235;-33
2021/01/25 07:11:07;;;;;;;8.80;6.10;;;;;;;30.10;42.33;100767.19;4828510;29;65812;-34
2021/01/25 07:13:38;;;;;;;8.98;5.63;;;;;;;30.02;42.42;100764.72;4827297;29;70544;-33
2021/01/25 07:16:09;;;;;;;7.35;5.60;;;;;;;30.03;41.87;100764.53;4826240;29;66523;-37
2021/01/25 07:18:48;;;;;;;6.90;5.47;;;;;;;29.98;41.82;100758.13;4818984;29;70571;-35
2021/01/25 07:21:19;;;;;;;6.35;5.85;;;;;;;30.00;41.45;100750.59;4821136;29;66120;-36
2021/01/25 07:23:52;;;;;;;8.90;5.50;;;;;;;30.02;41.34;100745.81;4821985;29;70941;-35
2021/01/25 07:26:23;;;;;;;6.03;4.80;;;;;;;30.03;40.63;100744.75;4823722;29;66207;-35
2021/01/25 07:28:53;;;;;;;8.38;4.78;;;;;;;29.98;40.18;100742.72;4820303;29;70080;-34
2021/01/25 07:31:25;;;;;;;5.05;4.75;;;;;;;30.01;39.86;100752.28;4814946;29;64974;-33
2021/01/25 07:33:56;;;;;;;4.75;4.45;;;;;;;30.01;40.31;100752.28;4820605;29;69176;-34
2021/01/25 07:36:26;;;;;;;28.13;4.20;;;;;;;30.04;39.88;100747.25;4822403;29;66415;-34
2021/01/25 07:38:58;;;;;;;34.10;14.38;;;;;;;30.18;42.08;100745.28;4826009;29;69712;-35
2021/01/25 07:41:29;;;;;;;48.05;25.52;;;;;;;30.37;45.47;100742.66;4816712;29;66033;-34
2021/01/25 07:44:01;;;;;;;57.05;34.17;;;;;;;30.56;47.52;100733.53;4827999;29;69756;-37
2021/01/25 07:46:33;;;;;;;83.90;38.35;;;;;;;30.78;47.68;100730.44;4827693;29;66770;-35
2021/01/25 07:49:08;;;;;;;70.47;37.90;;;;;;;30.96;49.31;100741.34;4822683;29;69318;-36
2021/01/25 07:51:40;;;;;;;52.22;37.72;;;;;;;31.08;49.46;100741.41;4827887;29;65767;-34
2021/01/25 07:54:15;;;;;;;62.65;36.65;;;;;;;31.14;50.11;100733.19;4827580;29;70233;-40
2021/01/25 07:56:46;;;;;;;57.20;37.05;;;;;;;31.25;49.58;100719.97;4826150;29;66928;-34
2021/01/25 07:59:17;;;;;;;56.05;37.25;;;;;;;31.35;50.48;100725.69;4824406;29;70573;-34
2021/01/25 08:02:16;;;;;;;56.30;36.13;;;;;;;31.47;50.18;100723.88;4826370;29;66473;-33
2021/01/25 08:04:47;;;;;;;61.33;36.72;;;;;;;31.57;50.28;100729.59;4827546;29;69234;-34
2021/01/25 08:07:18;;;;;;;66.20;38.92;;;;;;;31.61;50.14;100714.53;4825471;29;66168;-34
2021/01/25 08:09:49;;;;;;;51.60;37.70;;;;;;;31.67;50.30;100728.22;4827408;29;70313;-34
2021/01/25 08:12:22;;;;;;;52.45;34.80;;;;;;;31.77;50.25;100728.50;4827144;29;66563;-33
2021/01/25 08:15:03;;;;;;;54.10;36.78;;;;;;;31.81;50.23;100730.50;4821784;29;69527;-34
2021/01/25 08:17:43;;;;;;;44.70;33.28;;;;;;;31.88;50.95;100727.72;4826555;29;65963;-33
2021/01/25 08:20:22;;;;;;;44.28;34.83;;;;;;;31.85;50.64;100719.22;4827260;29;70575;-34
2021/01/25 08:23:22;;;;;;;57.95;36.13;;;;;;;31.94;50.64;100726.00;4828596;29;65651;-35
2021/01/25 08:25:56;;;;;;;50.78;36.88;;;;;;;31.87;50.47;100701.63;4826992;29;70567;-35
2021/01/25 08:28:36;;;;;;;56.65;35.80;;;;;;;31.99;50.47;100723.44;4825700;29;65240;-33
2021/01/25 08:31:15;;;;;;;55.55;38.75;;;;;;;32.10;50.21;100719.09;4827447;29;69906;-33
2021/01/25 08:34:00;;;;;;;57.42;35.85;;;;;;;32.13;50.17;100727.59;4826757;29;65090;-35
2021/01/25 08:36:35;;;;;;;53.90;36.67;;;;;;;32.17;50.80;100717.09;4820770;29;69552;-35
2021/01/25 08:39:17;;;;;;;57.25;38.30;;;;;;;32.17;50.54;100717.09;4825082;29;65986;-35
2021/01/25 08:41:54;;;;;;;51.88;35.70;;;;;;;32.18;51.45;100721.44;4813734;29;69934;-34
2021/01/25 08:44:25;;;;;;;57.15;37.47;;;;;;;32.25;51.38;100722.16;4824822;29;66462;-35
2021/01/25 08:47:07;;;;;;;65.80;40.60;;;;;;;32.26;50.98;100726.53;4825115;29;69672;-34
2021/01/25 08:49:40;;;;;;;66.22;41.22;;;;;;;32.27;51.63;100722.78;4826826;29;65634;-35
2021/01/25 08:52:24;;;;;;;76.13;43.67;;;;;;;32.22;51.67;100725.34;4816210;29;70050;-36
2021/01/25 08:55:11;;;;;;;54.85;40.35;;;;;;;32.25;51.93;100720.28;4827724;29;65437;-35
2021/01/25 08:57:43;;;;;;;58.53;39.38;;;;;;;32.31;51.72;100717.69;4826445;29;70416;-34
2021/01/25 09:00:35;;;;;;;57.33;39.58;;;;;;;32.24;51.87;100712.38;4824915;29;65919;-34
2021/01/25 09:03:09;;;;;;;55.60;40.58;;;;;;;32.32;51.97;100719.34;4819564;29;69988;-34
2021/01/25 09:05:40;;;;;;;74.00;42.72;;;;;;;32.27;51.82;100717.34;4825485;29;66032;-34
2021/01/25 09:08:11;;;;;;;73.72;42.67;;;;;;;32.25;52.40;100719.47;4823245;29;70012;-34
2021/01/25 09:10:41;;;;;;;62.03;38.67;;;;;;;32.33;53.03;100731.88;4823593;29;65230;-34
2021/01/25 09:13:12;;;;;;;64.72;35.67;;;;;;;32.33;53.29;100727.25;4824588;29;70757;-33
2021/01/25 09:15:43;;;;;;;54.47;32.50;;;;;;;32.31;54.18;100732.09;4825470;29;66029;-34
2021/01/25 09:18:13;;;;;;;48.60;30.65;;;;;;;32.35;53.91;100730.56;4826939;29;69626;-34
2021/01/25 09:20:45;;;;;;;52.17;29.50;;;;;;;32.37;54.40;100736.56;4826776;29;64997;-34
2021/01/25 09:23:18;;;;;;;47.88;27.92;;;;;;;32.36;54.70;100740.38;4818614;29;70259;-34
2021/01/25 09:25:48;;;;;;;46.42;25.65;;;;;;;32.30;54.38;100737.78;4826794;29;65856;-33
2021/01/25 09:28:19;;;;;;;34.70;23.70;;;;;;;32.29;54.78;100758.66;4825635;29;69203;-33
2021/01/25 09:30:50;;;;;;;33.95;22.38;;;;;;;32.28;54.41;100748.84;4823634;29;65291;-33
2021/01/25 09:33:20;;;;;;;37.45;21.05;;;;;;;32.35;53.95;100757.72;4826871;29;70232;-33
2021/01/25 09:35:51;;;;;;;33.97;19.85;;;;;;;32.47;53.83;100772.16;4826155;29;66090;-34
2021/01/25 09:38:22;;;;;;;28.25;18.27;;;;;;;32.50;53.86;100781.72;4826159;29;69782;-34
2021/01/25 09:40:52;;;;;;;23.92;17.23;;;;;;;32.53;53.53;100775.81;4826290;29;66288;-33
2021/01/25 09:43:23;;;;;;;27.88;18.65;;;;;;;32.54;53.83;100771.22;4825972;29;69845;-34
2021/01/25 09:45:54;;;;;;;28.92;19.38;;;;;;;32.53;53.50;100775.00;4815789;29;65320;-33
2021/01/25 09:48:24;;;;;;;27.52;20.33;;;;;;;32.53;53.49;100780.44;4826781;29;70030;-34
2021/01/25 09:50:55;;;;;;;32.50;19.40;;;;;;;32.53;53.46;100785.88;4824861;29;66302;-34
2021/01/25 09:53:26;;;;;;;34.22;19.55;;;;;;;32.50;53.43;100781.72;4826960;29;69719;-34
2021/01/25 09:55:57;;;;;;;27.40;18.35;;;;;;;32.38;53.72;100767.28;4824818;29;66327;-34
2021/01/25 09:58:28;;;;;;;27.67;18.57;;;;;;;32.46;53.90;100797.66;4825976;29;69532;-34
2021/01/25 10:00:58;;;;;;;26.85;17.23;;;;;;;32.45;53.58;100790.53;4830227;29;65335;-35
2021/01/25 10:03:29;;;;;;;25.77;16.80;;;;;;;32.47;53.15;100783.03;4824971;29;70104;-35
2021/01/25 10:06:02;;;;;;;21.27;15.27;;;;;;;32.42;53.09;100799.16;4828051;29;66129;-34
2021/01/25 10:08:32;;;;;;;24.05;13.88;;;;;;;32.46;53.17;100803.09;4823541;29;69024;-33
2021/01/25 10:11:05;;;;;;;21.88;13.75;;;;;;;32.53;52.98;100791.31;4824243;29;65148;-34
2021/01/25 10:13:37;;;;;;;22.10;12.63;;;;;;;32.44;53.39;100802.47;4823485;29;70501;-33
2021/01/25 10:16:08;;;;;;;20.80;12.15;;;;;;;32.43;52.91;100800.81;4822959;29;66199;-33
2021/01/25 10:18:40;;;;;;;13.88;11.93;;;;;;;32.39;53.02;100806.94;4816776;29;70298;-33
2021/01/25 10:21:11;;;;;;;12.73;11.57;;;;;;;32.37;53.23;100795.47;4826165;29;63920;-33
2021/01/25 10:23:42;;;;;;;15.45;12.02;;;;;;;32.44;53.24;100813.31;4822485;29;69562;-33
2021/01/25 10:26:22;;;;;;;16.60;13.20;;;;;;;32.47;52.87;100821.03;4826734;29;66828;-33
2021/01/25 10:28:53;;;;;;;23.70;14.00;;;;;;;32.44;53.01;100821.47;4825956;29;70231;-32
2021/01/25 10:31:23;;;;;;;25.00;14.07;;;;;;;32.45;53.30;100823.13;4825864;29;65988;-34
2021/01/25 10:33:54;;;;;;;21.70;14.90;;;;;;;32.47;53.31;100823.75;4824028;29;70039;-33
2021/01/25 10:36:25;;;;;;;20.35;13.70;;;;;;;32.40;53.32;100827.59;4827972;29;66322;-34
2021/01/25 10:38:55;;;;;;;22.80;13.65;;;;;;;32.37;53.78;100820.72;4826477;29;70283;-34
2021/01/25 10:41:26;;;;;;;17.00;11.60;;;;;;;32.32;53.68;100834.19;4825406;29;65579;-33
2021/01/25 10:43:57;;;;;;;12.20;10.63;;;;;;;32.30;53.85;100824.63;4827671;29;68565;-33
2021/01/25 10:46:27;;;;;;;9.52;8.63;;;;;;;32.32;54.32;100828.78;4827779;29;66403;-34
2021/01/25 10:48:58;;;;;;;11.23;8.45;;;;;;;32.27;53.74;100826.75;4828401;29;70377;-33
2021/01/25 10:51:28;;;;;;;7.82;7.13;;;;;;;32.27;53.66;100836.78;4828210;29;66130;-33
2021/01/25 10:54:00;;;;;;;8.15;6.63;;;;;;;32.27;54.36;100836.78;4816629;29;69875;-35
2021/01/25 10:56:30;;;;;;;7.03;6.37;;;;;;;32.25;53.97;100838.88;4827147;29;65863;-35
2021/01/25 10:59:01;;;;;;;6.05;5.40;;;;;;;32.25;54.07;100838.88;4819252;29;68672;-34
2021/01/25 11:01:33;;;;;;;27.38;5.28;;;;;;;32.27;54.49;100836.78;4828078;29;66191;-35
2021/01/25 11:04:03;;;;;;;;;;;;;;;32.21;54.26;100843.13;4827239;29;70023;-34
2021/01/25 11:06:33;;;;;;;16.65;8.90;;;;;;;32.16;54.76;100822.09;4828357;29;66678;-33
2021/01/25 11:09:05;;;;;;;13.02;7.60;;;;;;;32.16;54.84;100840.28;4826679;29;69262;-33
2021/01/25 11:11:36;;;;;;;11.90;6.63;;;;;;;32.04;54.80;100838.34;4816062;29;65936;-33
2021/01/25 11:14:07;;;;;;;8.40;6.20;;;;;;;32.05;54.48;100840.00;4827037;29;69881;-34
2021/01/25 11:16:38;;;;;;;9.55;4.93;;;;;;;31.98;54.49;100844.69;4827560;29;66697;-35
2021/01/25 11:19:09;;;;;;;5.33;4.77;;;;;;;31.94;54.80;100848.91;4826773;29;70011;-34
2021/01/25 11:21:41;;;;;;;4.97;4.47;;;;;;;31.96;55.00;100857.66;4826197;29;66186;-34
2021/01/25 11:24:12;;;;;;;7.40;4.10;;;;;;;31.90;55.16;100858.53;4822030;29;69742;-35
2021/01/25 11:26:42;;;;;;;5.22;4.30;;;;;;;31.87;55.04;100858.97;4826206;29;66074;-35
2021/01/25 11:29:15;;;;;;;3.30;3.10;;;;;;;31.87;54.91;100869.81;4822413;29;70392;-34
2021/01/25 11:31:46;;;;;;;4.60;4.22;;;;;;;31.84;55.56;100875.69;4822772;29;65897;-33
2021/01/25 11:34:17;;;;;;;8.35;4.78;;;;;;;31.80;55.06;100874.50;4821561;29;69366;-34
2021/01/25 11:36:47;;;;;;;7.93;5.03;;;;;;;31.79;55.23;100876.41;4815385;29;66258;-33
2021/01/25 11:39:18;;;;;;;32.67;8.05;;;;;;;31.69;55.35;100872.56;4821717;29;69128;-33